TAF and METAR

Decoding for American and Canadian METARs and TAFs is not fully implemented.

Could not understand the following METAR

KMWM 191515Z AUTO 21012KT 10SM CLR 03/M03 A3021 RMK AO2
No TAF available for Windom Municipal Airport
Windom Municipal Airport in United States of America at 430m

Latest 5 airports